sensor_id;sensor_type;location;lat;lon;timestamp;temperature;humidity
41310;DHT22;27057;51.438;-0.010;2022-07-21T00:02:32;20.50;99.90
41310;DHT22;27057;51.438;-0.010;2022-07-21T00:04:59;20.30;99.90
41310;DHT22;27057;51.438;-0.010;2022-07-21T00:07:28;20.40;99.90
41310;DHT22;27057;51.438;-0.010;2022-07-21T00:10:01;20.40;99.90
41310;DHT22;27057;51.438;-0.010;2022-07-21T00:12:29;20.30;99.90
41310;DHT22;27057;51.438;-0.010;2022-07-21T00:14:58;20.30;99.90
41310;DHT22;27057;51.438;-0.010;2022-07-21T00:17:26;20.20;99.90
41310;DHT22;27057;51.438;-0.010;2022-07-21T00:19:53;20.10;99.90
41310;DHT22;27057;51.438;-0.010;2022-07-21T00:22:24;20.00;99.90
41310;DHT22;27057;51.438;-0.010;2022-07-21T00:24:55;19.90;99.90
41310;DHT22;27057;51.438;-0.010;2022-07-21T00:27:25;19.70;99.90
41310;DHT22;27057;51.438;-0.010;2022-07-21T00:30:02;19.60;99.90
41310;DHT22;27057;51.438;-0.010;2022-07-21T00:32:37;19.50;99.90
41310;DHT22;27057;51.438;-0.010;2022-07-21T00:35:14;19.20;99.90
41310;DHT22;27057;51.438;-0.010;2022-07-21T00:38:03;19.30;99.90
41310;DHT22;27057;51.438;-0.010;2022-07-21T00:40:37;19.30;99.90
41310;DHT22;27057;51.438;-0.010;2022-07-21T00:43:05;19.20;99.90
41310;DHT22;27057;51.438;-0.010;2022-07-21T00:45:38;19.10;99.90
41310;DHT22;27057;51.438;-0.010;2022-07-21T00:48:13;19.30;99.90
41310;DHT22;27057;51.438;-0.010;2022-07-21T00:50:48;19.20;99.90
41310;DHT22;27057;51.438;-0.010;2022-07-21T00:53:25;19.20;99.90
41310;DHT22;27057;51.438;-0.010;2022-07-21T00:55:59;19.20;99.90
41310;DHT22;27057;51.438;-0.010;2022-07-21T00:58:34;19.20;99.90
41310;DHT22;27057;51.438;-0.010;2022-07-21T01:01:17;19.20;99.90
41310;DHT22;27057;51.438;-0.010;2022-07-21T01:03:51;19.20;99.90
41310;DHT22;27057;51.438;-0.010;2022-07-21T01:06:27;19.40;99.90
41310;DHT22;27057;51.438;-0.010;2022-07-21T01:09:05;19.00;99.90
41310;DHT22;27057;51.438;-0.010;2022-07-21T01:11:55;19.30;99.90
41310;DHT22;27057;51.438;-0.010;2022-07-21T01:14:24;19.30;99.90
41310;DHT22;27057;51.438;-0.010;2022-07-21T01:17:01;19.30;99.90
41310;DHT22;27057;51.438;-0.010;2022-07-21T01:20:26;19.20;99.90
41310;DHT22;27057;51.438;-0.010;2022-07-21T01:22:59;19.20;99.90
41310;DHT22;27057;51.438;-0.010;2022-07-21T01:25:29;19.20;99.90
41310;DHT22;27057;51.438;-0.010;2022-07-21T01:28:19;19.20;99.90
41310;DHT22;27057;51.438;-0.010;2022-07-21T01:30:50;19.10;99.90
41310;DHT22;27057;51.438;-0.010;2022-07-21T01:33:20;19.10;99.90
41310;DHT22;27057;51.438;-0.010;2022-07-21T01:35:51;19.10;99.90
41310;DHT22;27057;51.438;-0.010;2022-07-21T01:38:19;19.10;99.90
41310;DHT22;27057;51.438;-0.010;2022-07-21T01:41:09;19.10;99.90
41310;DHT22;27057;51.438;-0.010;2022-07-21T01:43:57;19.10;99.90
41310;DHT22;27057;51.438;-0.010;2022-07-21T01:47:10;19.10;99.90
41310;DHT22;27057;51.438;-0.010;2022-07-21T01:49:44;19.00;99.90
41310;DHT22;27057;51.438;-0.010;2022-07-21T01:52:42;19.00;99.90
41310;DHT22;27057;51.438;-0.010;2022-07-21T01:55:24;19.00;99.90
41310;DHT22;27057;51.438;-0.010;2022-07-21T01:58:04;18.90;99.90
41310;DHT22;27057;51.438;-0.010;2022-07-21T02:00:43;18.80;99.90
41310;DHT22;27057;51.438;-0.010;2022-07-21T02:03:17;18.90;99.90
41310;DHT22;27057;51.438;-0.010;2022-07-21T02:05:53;18.90;99.90
41310;DHT22;27057;51.438;-0.010;2022-07-21T02:08:30;18.80;99.90
41310;DHT22;27057;51.438;-0.010;2022-07-21T02:11:13;18.80;99.90
41310;DHT22;27057;51.438;-0.010;2022-07-21T02:13:48;18.90;99.90
41310;DHT22;27057;51.438;-0.010;2022-07-21T02:16:53;18.90;99.90
41310;DHT22;27057;51.438;-0.010;2022-07-21T02:19:50;19.00;99.90
41310;DHT22;27057;51.438;-0.010;2022-07-21T02:22:42;19.00;99.90
41310;DHT22;27057;51.438;-0.010;2022-07-21T02:25:33;19.00;99.90
41310;DHT22;27057;51.438;-0.010;2022-07-21T02:28:09;19.10;99.90
41310;DHT22;27057;51.438;-0.010;2022-07-21T02:30:48;19.20;99.90
41310;DHT22;27057;51.438;-0.010;2022-07-21T02:36:48;19.10;99.90
41310;DHT22;27057;51.438;-0.010;2022-07-21T02:39:15;19.10;99.90
41310;DHT22;27057;51.438;-0.010;2022-07-21T02:42:13;19.10;99.90
41310;DHT22;27057;51.438;-0.010;2022-07-21T02:44:49;19.20;99.90
41310;DHT22;27057;51.438;-0.010;2022-07-21T02:47:26;19.00;99.90
41310;DHT22;27057;51.438;-0.010;2022-07-21T02:52:47;19.00;99.90
41310;DHT22;27057;51.438;-0.010;2022-07-21T02:55:21;19.00;99.90
41310;DHT22;27057;51.438;-0.010;2022-07-21T02:58:37;19.00;99.90
41310;DHT22;27057;51.438;-0.010;2022-07-21T03:08:15;19.00;99.90
41310;DHT22;27057;51.438;-0.010;2022-07-21T03:10:44;19.00;99.90
41310;DHT22;27057;51.438;-0.010;2022-07-21T03:13:58;19.00;99.90
41310;DHT22;27057;51.438;-0.010;2022-07-21T03:16:13;19.00;99.90
41310;DHT22;27057;51.438;-0.010;2022-07-21T03:18:59;18.90;99.90
41310;DHT22;27057;51.438;-0.010;2022-07-21T03:21:42;18.90;99.90
41310;DHT22;27057;51.438;-0.010;2022-07-21T03:24:48;18.90;99.90
41310;DHT22;27057;51.438;-0.010;2022-07-21T03:27:18;18.90;99.90
41310;DHT22;27057;51.438;-0.010;2022-07-21T03:29:48;18.90;99.90
41310;DHT22;27057;51.438;-0.010;2022-07-21T03:32:19;18.80;99.90
41310;DHT22;27057;51.438;-0.010;2022-07-21T03:34:55;18.90;99.90
41310;DHT22;27057;51.438;-0.010;2022-07-21T03:37:32;18.90;99.90
41310;DHT22;27057;51.438;-0.010;2022-07-21T03:40:16;18.60;99.90
41310;DHT22;27057;51.438;-0.010;2022-07-21T03:43:26;18.90;99.90
41310;DHT22;27057;51.438;-0.010;2022-07-21T03:45:57;18.90;99.90
41310;DHT22;27057;51.438;-0.010;2022-07-21T03:48:25;18.90;99.90
41310;DHT22;27057;51.438;-0.010;2022-07-21T03:50:53;18.90;99.90
41310;DHT22;27057;51.438;-0.010;2022-07-21T03:53:34;18.90;99.90
41310;DHT22;27057;51.438;-0.010;2022-07-21T03:56:22;19.20;99.90
41310;DHT22;27057;51.438;-0.010;2022-07-21T03:59:06;18.80;99.90
41310;DHT22;27057;51.438;-0.010;2022-07-21T04:02:14;18.80;99.90
41310;DHT22;27057;51.438;-0.010;2022-07-21T04:04:57;18.80;99.90
41310;DHT22;27057;51.438;-0.010;2022-07-21T04:07:37;18.80;99.90
41310;DHT22;27057;51.438;-0.010;2022-07-21T04:10:29;18.80;99.90
41310;DHT22;27057;51.438;-0.010;2022-07-21T04:13:05;18.80;99.90
41310;DHT22;27057;51.438;-0.010;2022-07-21T04:15:37;18.80;99.90
41310;DHT22;27057;51.438;-0.010;2022-07-21T04:20:43;19.10;99.90
41310;DHT22;27057;51.438;-0.010;2022-07-21T04:23:18;18.70;99.90
41310;DHT22;27057;51.438;-0.010;2022-07-21T04:25:51;18.90;99.90
41310;DHT22;27057;51.438;-0.010;2022-07-21T04:28:28;18.90;99.90
41310;DHT22;27057;51.438;-0.010;2022-07-21T04:31:03;18.90;99.90
41310;DHT22;27057;51.438;-0.010;2022-07-21T04:33:43;18.90;99.90
41310;DHT22;27057;51.438;-0.010;2022-07-21T04:36:15;18.90;99.90
41310;DHT22;27057;51.438;-0.010;2022-07-21T04:38:48;18.80;99.90
41310;DHT22;27057;51.438;-0.010;2022-07-21T04:41:17;19.10;99.90
41310;DHT22;27057;51.438;-0.010;2022-07-21T04:43:51;18.50;99.90
41310;DHT22;27057;51.438;-0.010;2022-07-21T04:46:19;18.80;99.90
41310;DHT22;27057;51.438;-0.010;2022-07-21T04:49:15;18.90;99.90
41310;DHT22;27057;51.438;-0.010;2022-07-21T04:51:46;18.80;99.90
41310;DHT22;27057;51.438;-0.010;2022-07-21T04:54:20;18.80;99.90
41310;DHT22;27057;51.438;-0.010;2022-07-21T04:59:46;18.80;99.90
41310;DHT22;27057;51.438;-0.010;2022-07-21T05:02:17;18.50;99.90
41310;DHT22;27057;51.438;-0.010;2022-07-21T05:04:45;18.80;99.90
41310;DHT22;27057;51.438;-0.010;2022-07-21T05:07:28;18.80;99.90
41310;DHT22;27057;51.438;-0.010;2022-07-21T05:10:16;18.80;99.90
41310;DHT22;27057;51.438;-0.010;2022-07-21T05:12:50;19.20;99.90
41310;DHT22;27057;51.438;-0.010;2022-07-21T05:15:21;18.80;99.90
41310;DHT22;27057;51.438;-0.010;2022-07-21T05:17:49;18.90;99.90
41310;DHT22;27057;51.438;-0.010;2022-07-21T05:20:32;18.90;99.90
41310;DHT22;27057;51.438;-0.010;2022-07-21T05:23:22;18.90;99.90
41310;DHT22;27057;51.438;-0.010;2022-07-21T05:26:03;18.90;99.90
41310;DHT22;27057;51.438;-0.010;2022-07-21T05:28:31;19.00;99.90
41310;DHT22;27057;51.438;-0.010;2022-07-21T05:30:59;19.00;99.90
41310;DHT22;27057;51.438;-0.010;2022-07-21T05:33:39;19.10;99.90
41310;DHT22;27057;51.438;-0.010;2022-07-21T05:36:11;19.10;99.90
41310;DHT22;27057;51.438;-0.010;2022-07-21T05:38:41;19.10;99.90
41310;DHT22;27057;51.438;-0.010;2022-07-21T05:41:08;19.20;99.90
41310;DHT22;27057;51.438;-0.010;2022-07-21T05:43:36;19.20;99.90
41310;DHT22;27057;51.438;-0.010;2022-07-21T05:46:07;19.20;99.90
41310;DHT22;27057;51.438;-0.010;2022-07-21T05:48:35;19.30;99.90
41310;DHT22;27057;51.438;-0.010;2022-07-21T05:51:02;19.30;99.90
41310;DHT22;27057;51.438;-0.010;2022-07-21T05:53:30;19.40;99.90
41310;DHT22;27057;51.438;-0.010;2022-07-21T05:56:07;19.40;99.90
41310;DHT22;27057;51.438;-0.010;2022-07-21T05:58:41;19.40;99.90
41310;DHT22;27057;51.438;-0.010;2022-07-21T06:01:08;19.40;99.90
41310;DHT22;27057;51.438;-0.010;2022-07-21T06:03:46;19.40;99.90
41310;DHT22;27057;51.438;-0.010;2022-07-21T06:06:17;19.50;99.90
41310;DHT22;27057;51.438;-0.010;2022-07-21T06:08:47;19.50;99.90
41310;DHT22;27057;51.438;-0.010;2022-07-21T06:11:19;19.60;99.90
41310;DHT22;27057;51.438;-0.010;2022-07-21T06:13:47;19.40;99.90
41310;DHT22;27057;51.438;-0.010;2022-07-21T06:16:18;19.50;99.90
41310;DHT22;27057;51.438;-0.010;2022-07-21T06:18:47;19.40;99.90
41310;DHT22;27057;51.438;-0.010;2022-07-21T06:21:14;19.80;99.90
41310;DHT22;27057;51.438;-0.010;2022-07-21T06:23:42;19.60;99.90
41310;DHT22;27057;51.438;-0.010;2022-07-21T06:26:15;19.60;99.90
41310;DHT22;27057;51.438;-0.010;2022-07-21T06:28:46;19.40;99.90
41310;DHT22;27057;51.438;-0.010;2022-07-21T06:31:14;19.70;99.90
41310;DHT22;27057;51.438;-0.010;2022-07-21T06:33:50;19.90;99.90
41310;DHT22;27057;51.438;-0.010;2022-07-21T06:36:25;19.80;99.90
41310;DHT22;27057;51.438;-0.010;2022-07-21T06:38:54;19.90;99.90
41310;DHT22;27057;51.438;-0.010;2022-07-21T06:41:29;19.90;99.90
41310;DHT22;27057;51.438;-0.010;2022-07-21T06:43:57;20.00;99.90
41310;DHT22;27057;51.438;-0.010;2022-07-21T06:46:29;20.00;99.90
41310;DHT22;27057;51.438;-0.010;2022-07-21T06:48:57;20.00;99.90
41310;DHT22;27057;51.438;-0.010;2022-07-21T06:51:27;20.10;99.90
41310;DHT22;27057;51.438;-0.010;2022-07-21T06:53:55;20.10;99.90
41310;DHT22;27057;51.438;-0.010;2022-07-21T06:56:25;20.10;99.90
41310;DHT22;27057;51.438;-0.010;2022-07-21T06:59:01;20.20;99.90
41310;DHT22;27057;51.438;-0.010;2022-07-21T07:01:29;20.10;99.90
41310;DHT22;27057;51.438;-0.010;2022-07-21T07:03:56;20.20;99.90
41310;DHT22;27057;51.438;-0.010;2022-07-21T07:06:26;20.20;99.90
41310;DHT22;27057;51.438;-0.010;2022-07-21T07:08:56;20.40;99.90
41310;DHT22;27057;51.438;-0.010;2022-07-21T07:11:24;20.30;99.90
41310;DHT22;27057;51.438;-0.010;2022-07-21T07:13:53;20.20;99.90
41310;DHT22;27057;51.438;-0.010;2022-07-21T07:16:25;20.60;99.90
41310;DHT22;27057;51.438;-0.010;2022-07-21T07:18:56;20.20;99.90
41310;DHT22;27057;51.438;-0.010;2022-07-21T07:21:24;20.20;99.90
41310;DHT22;27057;51.438;-0.010;2022-07-21T07:23:52;20.00;99.90
41310;DHT22;27057;51.438;-0.010;2022-07-21T07:26:20;20.30;99.90
41310;DHT22;27057;51.438;-0.010;2022-07-21T07:28:47;20.50;99.90
41310;DHT22;27057;51.438;-0.010;2022-07-21T07:31:15;20.40;99.90
41310;DHT22;27057;51.438;-0.010;2022-07-21T07:33:43;20.50;99.90
41310;DHT22;27057;51.438;-0.010;2022-07-21T07:36:10;20.50;99.90
41310;DHT22;27057;51.438;-0.010;2022-07-21T07:38:39;20.60;99.90
41310;DHT22;27057;51.438;-0.010;2022-07-21T07:41:07;20.50;99.90
41310;DHT22;27057;51.438;-0.010;2022-07-21T07:43:35;20.70;99.90
41310;DHT22;27057;51.438;-0.010;2022-07-21T07:46:03;20.80;99.90
41310;DHT22;27057;51.438;-0.010;2022-07-21T07:51:02;20.90;99.90
41310;DHT22;27057;51.438;-0.010;2022-07-21T07:53:29;21.00;99.90
41310;DHT22;27057;51.438;-0.010;2022-07-21T07:55:59;21.20;99.90
41310;DHT22;27057;51.438;-0.010;2022-07-21T07:58:26;20.70;99.90
41310;DHT22;27057;51.438;-0.010;2022-07-21T08:00:54;20.90;99.90
41310;DHT22;27057;51.438;-0.010;2022-07-21T08:03:24;20.90;99.90
41310;DHT22;27057;51.438;-0.010;2022-07-21T08:05:54;21.30;99.90
41310;DHT22;27057;51.438;-0.010;2022-07-21T08:08:23;21.00;99.90
41310;DHT22;27057;51.438;-0.010;2022-07-21T08:10:50;21.00;99.90
41310;DHT22;27057;51.438;-0.010;2022-07-21T08:13:18;21.10;99.90
41310;DHT22;27057;51.438;-0.010;2022-07-21T08:15:46;21.20;99.90
41310;DHT22;27057;51.438;-0.010;2022-07-21T08:18:15;21.20;99.90
41310;DHT22;27057;51.438;-0.010;2022-07-21T08:20:45;21.20;99.90
41310;DHT22;27057;51.438;-0.010;2022-07-21T08:23:14;21.30;99.90
41310;DHT22;27057;51.438;-0.010;2022-07-21T08:25:44;21.40;99.90
41310;DHT22;27057;51.438;-0.010;2022-07-21T08:28:12;21.50;99.90
41310;DHT22;27057;51.438;-0.010;2022-07-21T08:30:39;21.50;99.90
41310;DHT22;27057;51.438;-0.010;2022-07-21T08:33:07;21.60;99.90
41310;DHT22;27057;51.438;-0.010;2022-07-21T08:35:34;21.70;99.90
41310;DHT22;27057;51.438;-0.010;2022-07-21T08:38:07;21.70;99.90
41310;DHT22;27057;51.438;-0.010;2022-07-21T08:40:43;21.80;99.90
41310;DHT22;27057;51.438;-0.010;2022-07-21T08:43:12;21.90;99.90
41310;DHT22;27057;51.438;-0.010;2022-07-21T08:45:42;22.10;99.90
41310;DHT22;27057;51.438;-0.010;2022-07-21T08:48:10;22.30;99.90
41310;DHT22;27057;51.438;-0.010;2022-07-21T08:50:38;22.40;99.90
41310;DHT22;27057;51.438;-0.010;2022-07-21T08:53:06;22.60;99.90
41310;DHT22;27057;51.438;-0.010;2022-07-21T08:55:35;22.80;99.90
41310;DHT22;27057;51.438;-0.010;2022-07-21T08:58:03;22.90;99.90
41310;DHT22;27057;51.438;-0.010;2022-07-21T09:00:36;23.10;99.90
41310;DHT22;27057;51.438;-0.010;2022-07-21T09:03:19;23.10;99.90
41310;DHT22;27057;51.438;-0.010;2022-07-21T09:06:04;23.20;99.90
41310;DHT22;27057;51.438;-0.010;2022-07-21T09:08:39;23.50;99.90
41310;DHT22;27057;51.438;-0.010;2022-07-21T09:13:46;23.50;99.90
41310;DHT22;27057;51.438;-0.010;2022-07-21T09:16:43;23.50;99.90
41310;DHT22;27057;51.438;-0.010;2022-07-21T09:21:48;23.60;99.90
41310;DHT22;27057;51.438;-0.010;2022-07-21T09:24:25;23.60;99.90
41310;DHT22;27057;51.438;-0.010;2022-07-21T09:30:02;23.80;99.90
41310;DHT22;27057;51.438;-0.010;2022-07-21T09:32:34;24.00;99.90
41310;DHT22;27057;51.438;-0.010;2022-07-21T09:37:35;24.20;99.90
41310;DHT22;27057;51.438;-0.010;2022-07-21T09:40:08;24.30;99.90
41310;DHT22;27057;51.438;-0.010;2022-07-21T09:42:38;24.40;99.90
41310;DHT22;27057;51.438;-0.010;2022-07-21T09:45:12;24.50;99.80
41310;DHT22;27057;51.438;-0.010;2022-07-21T09:47:40;24.60;99.70
41310;DHT22;27057;51.438;-0.010;2022-07-21T09:50:11;24.80;99.00
41310;DHT22;27057;51.438;-0.010;2022-07-21T09:52:53;24.90;99.20
41310;DHT22;27057;51.438;-0.010;2022-07-21T09:55:22;24.90;98.30
41310;DHT22;27057;51.438;-0.010;2022-07-21T09:57:50;25.20;98.70
41310;DHT22;27057;51.438;-0.010;2022-07-21T10:00:19;25.30;98.30
41310;DHT22;27057;51.438;-0.010;2022-07-21T10:02:48;25.40;98.10
41310;DHT22;27057;51.438;-0.010;2022-07-21T10:05:20;25.40;97.70
41310;DHT22;27057;51.438;-0.010;2022-07-21T10:07:57;25.40;98.00
41310;DHT22;27057;51.438;-0.010;2022-07-21T10:10:27;25.30;97.90
41310;DHT22;27057;51.438;-0.010;2022-07-21T10:13:15;25.40;98.00
41310;DHT22;27057;51.438;-0.010;2022-07-21T10:15:46;25.60;97.70
41310;DHT22;27057;51.438;-0.010;2022-07-21T10:18:15;25.60;97.60
41310;DHT22;27057;51.438;-0.010;2022-07-21T10:20:46;25.60;97.40
41310;DHT22;27057;51.438;-0.010;2022-07-21T10:23:27;25.70;97.10
41310;DHT22;27057;51.438;-0.010;2022-07-21T10:25:55;25.80;97.10
41310;DHT22;27057;51.438;-0.010;2022-07-21T10:28:24;26.00;97.00
41310;DHT22;27057;51.438;-0.010;2022-07-21T10:30:53;25.90;96.80
41310;DHT22;27057;51.438;-0.010;2022-07-21T10:39:22;25.80;96.20
41310;DHT22;27057;51.438;-0.010;2022-07-21T10:41:55;25.90;95.70
41310;DHT22;27057;51.438;-0.010;2022-07-21T10:47:20;26.30;95.40
41310;DHT22;27057;51.438;-0.010;2022-07-21T10:49:54;26.10;95.70
41310;DHT22;27057;51.438;-0.010;2022-07-21T10:57:44;26.10;95.60
41310;DHT22;27057;51.438;-0.010;2022-07-21T11:00:27;26.10;95.80
41310;DHT22;27057;51.438;-0.010;2022-07-21T11:03:00;26.10;95.80
41310;DHT22;27057;51.438;-0.010;2022-07-21T11:05:31;25.90;95.20
41310;DHT22;27057;51.438;-0.010;2022-07-21T11:08:08;25.80;96.10
41310;DHT22;27057;51.438;-0.010;2022-07-21T11:10:48;25.80;96.30
41310;DHT22;27057;51.438;-0.010;2022-07-21T11:13:17;25.80;96.30
41310;DHT22;27057;51.438;-0.010;2022-07-21T11:18:20;26.10;96.20
41310;DHT22;27057;51.438;-0.010;2022-07-21T11:26:08;26.40;95.00
41310;DHT22;27057;51.438;-0.010;2022-07-21T11:28:36;26.20;94.80
41310;DHT22;27057;51.438;-0.010;2022-07-21T11:33:44;26.60;95.60
41310;DHT22;27057;51.438;-0.010;2022-07-21T11:36:33;26.00;95.70
41310;DHT22;27057;51.438;-0.010;2022-07-21T11:39:06;26.20;95.40
41310;DHT22;27057;51.438;-0.010;2022-07-21T11:41:36;26.30;95.30
41310;DHT22;27057;51.438;-0.010;2022-07-21T11:44:04;26.40;95.40
41310;DHT22;27057;51.438;-0.010;2022-07-21T11:46:53;26.40;95.40
41310;DHT22;27057;51.438;-0.010;2022-07-21T11:49:22;26.60;95.00
41310;DHT22;27057;51.438;-0.010;2022-07-21T11:51:59;26.50;95.30
41310;DHT22;27057;51.438;-0.010;2022-07-21T11:54:44;26.70;99.90
41310;DHT22;27057;51.438;-0.010;2022-07-21T11:57:14;26.40;93.80
41310;DHT22;27057;51.438;-0.010;2022-07-21T11:59:42;26.50;95.30
41310;DHT22;27057;51.438;-0.010;2022-07-21T12:02:13;26.40;95.10
41310;DHT22;27057;51.438;-0.010;2022-07-21T12:07:25;26.60;94.90
41310;DHT22;27057;51.438;-0.010;2022-07-21T12:09:58;26.60;94.70
41310;DHT22;27057;51.438;-0.010;2022-07-21T12:12:39;26.60;95.00
41310;DHT22;27057;51.438;-0.010;2022-07-21T12:17:44;26.70;94.70
41310;DHT22;27057;51.438;-0.010;2022-07-21T12:20:13;26.70;94.90
41310;DHT22;27057;51.438;-0.010;2022-07-21T12:22:44;26.90;94.80
41310;DHT22;27057;51.438;-0.010;2022-07-21T12:25:15;26.80;94.70
41310;DHT22;27057;51.438;-0.010;2022-07-21T12:27:47;26.80;94.20
41310;DHT22;27057;51.438;-0.010;2022-07-21T12:30:45;26.70;94.20
41310;DHT22;27057;51.438;-0.010;2022-07-21T12:33:14;26.70;94.30
41310;DHT22;27057;51.438;-0.010;2022-07-21T12:35:45;26.70;94.50
41310;DHT22;27057;51.438;-0.010;2022-07-21T12:38:42;26.40;94.20
41310;DHT22;27057;51.438;-0.010;2022-07-21T12:41:11;27.00;99.90
41310;DHT22;27057;51.438;-0.010;2022-07-21T12:43:57;26.90;99.90
41310;DHT22;27057;51.438;-0.010;2022-07-21T12:46:35;27.20;93.90
41310;DHT22;27057;51.438;-0.010;2022-07-21T12:49:07;27.10;93.30
41310;DHT22;27057;51.438;-0.010;2022-07-21T12:51:39;27.00;93.90
41310;DHT22;27057;51.438;-0.010;2022-07-21T12:54:09;26.90;93.90
41310;DHT22;27057;51.438;-0.010;2022-07-21T12:56:37;26.80;94.10
41310;DHT22;27057;51.438;-0.010;2022-07-21T12:59:05;26.50;94.10
41310;DHT22;27057;51.438;-0.010;2022-07-21T13:01:33;26.50;94.40
41310;DHT22;27057;51.438;-0.010;2022-07-21T13:04:02;26.40;94.40
41310;DHT22;27057;51.438;-0.010;2022-07-21T13:06:30;26.20;94.30
41310;DHT22;27057;51.438;-0.010;2022-07-21T13:08:58;26.20;94.30
41310;DHT22;27057;51.438;-0.010;2022-07-21T13:11:26;26.10;94.60
41310;DHT22;27057;51.438;-0.010;2022-07-21T13:13:53;26.00;94.70
41310;DHT22;27057;51.438;-0.010;2022-07-21T13:16:24;26.00;94.60
41310;DHT22;27057;51.438;-0.010;2022-07-21T13:18:52;25.90;94.70
41310;DHT22;27057;51.438;-0.010;2022-07-21T13:21:20;25.80;94.80
41310;DHT22;27057;51.438;-0.010;2022-07-21T13:23:48;25.80;94.90
41310;DHT22;27057;51.438;-0.010;2022-07-21T13:26:15;25.80;94.80
41310;DHT22;27057;51.438;-0.010;2022-07-21T13:28:43;25.80;94.90
41310;DHT22;27057;51.438;-0.010;2022-07-21T13:31:11;25.80;94.90
41310;DHT22;27057;51.438;-0.010;2022-07-21T13:33:38;25.60;94.90
41310;DHT22;27057;51.438;-0.010;2022-07-21T13:36:07;25.60;94.70
41310;DHT22;27057;51.438;-0.010;2022-07-21T13:38:35;25.80;94.70
41310;DHT22;27057;51.438;-0.010;2022-07-21T13:41:03;25.60;94.60
41310;DHT22;27057;51.438;-0.010;2022-07-21T13:43:51;25.70;94.60
41310;DHT22;27057;51.438;-0.010;2022-07-21T13:46:19;25.70;94.50
41310;DHT22;27057;51.438;-0.010;2022-07-21T13:48:47;25.70;94.60
41310;DHT22;27057;51.438;-0.010;2022-07-21T13:51:15;25.60;99.90
41310;DHT22;27057;51.438;-0.010;2022-07-21T13:53:48;25.60;94.60
41310;DHT22;27057;51.438;-0.010;2022-07-21T13:56:15;25.60;94.50
41310;DHT22;27057;51.438;-0.010;2022-07-21T13:58:44;25.60;94.70
41310;DHT22;27057;51.438;-0.010;2022-07-21T14:01:13;25.60;94.50
41310;DHT22;27057;51.438;-0.010;2022-07-21T14:03:42;25.60;94.60
41310;DHT22;27057;51.438;-0.010;2022-07-21T14:06:10;25.70;94.50
41310;DHT22;27057;51.438;-0.010;2022-07-21T14:08:38;25.80;99.90
41310;DHT22;27057;51.438;-0.010;2022-07-21T14:11:07;25.70;94.40
41310;DHT22;27057;51.438;-0.010;2022-07-21T14:13:34;25.60;94.30
41310;DHT22;27057;51.438;-0.010;2022-07-21T14:16:02;25.90;99.90
41310;DHT22;27057;51.438;-0.010;2022-07-21T14:18:30;25.60;94.40
41310;DHT22;27057;51.438;-0.010;2022-07-21T14:20:58;25.60;94.30
41310;DHT22;27057;51.438;-0.010;2022-07-21T14:23:25;25.60;94.40
41310;DHT22;27057;51.438;-0.010;2022-07-21T14:25:53;25.60;94.30
41310;DHT22;27057;51.438;-0.010;2022-07-21T14:28:21;25.60;94.30
41310;DHT22;27057;51.438;-0.010;2022-07-21T14:30:49;25.50;94.30
41310;DHT22;27057;51.438;-0.010;2022-07-21T14:33:26;25.50;94.60
41310;DHT22;27057;51.438;-0.010;2022-07-21T14:35:54;25.40;94.40
41310;DHT22;27057;51.438;-0.010;2022-07-21T14:38:21;25.40;94.30
41310;DHT22;27057;51.438;-0.010;2022-07-21T14:40:51;25.30;93.90
41310;DHT22;27057;51.438;-0.010;2022-07-21T14:43:18;25.20;94.20
41310;DHT22;27057;51.438;-0.010;2022-07-21T14:45:46;25.20;94.30
41310;DHT22;27057;51.438;-0.010;2022-07-21T14:48:17;25.10;94.30
41310;DHT22;27057;51.438;-0.010;2022-07-21T14:50:44;24.90;99.90
41310;DHT22;27057;51.438;-0.010;2022-07-21T14:53:12;25.00;94.20
41310;DHT22;27057;51.438;-0.010;2022-07-21T14:55:39;24.90;94.20
41310;DHT22;27057;51.438;-0.010;2022-07-21T14:58:11;24.80;99.90
41310;DHT22;27057;51.438;-0.010;2022-07-21T15:00:39;24.80;94.60
41310;DHT22;27057;51.438;-0.010;2022-07-21T15:03:07;24.80;94.40
41310;DHT22;27057;51.438;-0.010;2022-07-21T15:05:35;24.70;94.40
41310;DHT22;27057;51.438;-0.010;2022-07-21T15:08:03;24.70;94.20
41310;DHT22;27057;51.438;-0.010;2022-07-21T15:10:39;24.60;94.30
41310;DHT22;27057;51.438;-0.010;2022-07-21T15:13:07;24.60;94.30
41310;DHT22;27057;51.438;-0.010;2022-07-21T15:15:34;24.50;94.40
41310;DHT22;27057;51.438;-0.010;2022-07-21T15:18:04;24.50;94.40
41310;DHT22;27057;51.438;-0.010;2022-07-21T15:20:31;24.40;94.40
41310;DHT22;27057;51.438;-0.010;2022-07-21T15:22:59;24.40;94.40
41310;DHT22;27057;51.438;-0.010;2022-07-21T15:27:54;24.40;94.00
41310;DHT22;27057;51.438;-0.010;2022-07-21T15:30:21;24.40;94.30
41310;DHT22;27057;51.438;-0.010;2022-07-21T15:32:49;24.40;94.40
41310;DHT22;27057;51.438;-0.010;2022-07-21T15:35:16;24.50;94.40
41310;DHT22;27057;51.438;-0.010;2022-07-21T15:40:14;24.40;94.00
41310;DHT22;27057;51.438;-0.010;2022-07-21T15:42:43;24.50;94.40
41310;DHT22;27057;51.438;-0.010;2022-07-21T15:45:13;24.40;94.50
41310;DHT22;27057;51.438;-0.010;2022-07-21T15:50:09;24.50;94.00
41310;DHT22;27057;51.438;-0.010;2022-07-21T15:52:41;24.40;94.40
41310;DHT22;27057;51.438;-0.010;2022-07-21T15:55:10;24.40;94.30
41310;DHT22;27057;51.438;-0.010;2022-07-21T15:57:39;24.40;94.50
41310;DHT22;27057;51.438;-0.010;2022-07-21T16:00:10;24.30;94.60
41310;DHT22;27057;51.438;-0.010;2022-07-21T16:02:42;24.10;94.30
41310;DHT22;27057;51.438;-0.010;2022-07-21T16:05:11;24.10;94.50
41310;DHT22;27057;51.438;-0.010;2022-07-21T16:07:41;24.20;94.70
41310;DHT22;27057;51.438;-0.010;2022-07-21T16:10:09;24.10;94.70
41310;DHT22;27057;51.438;-0.010;2022-07-21T16:12:37;24.00;94.80
41310;DHT22;27057;51.438;-0.010;2022-07-21T16:15:06;24.00;94.90
41310;DHT22;27057;51.438;-0.010;2022-07-21T16:17:35;24.00;94.70
41310;DHT22;27057;51.438;-0.010;2022-07-21T16:20:05;23.90;94.70
41310;DHT22;27057;51.438;-0.010;2022-07-21T16:22:40;23.90;94.80
41310;DHT22;27057;51.438;-0.010;2022-07-21T16:25:13;23.80;94.80
41310;DHT22;27057;51.438;-0.010;2022-07-21T16:27:41;23.80;95.20
41310;DHT22;27057;51.438;-0.010;2022-07-21T16:30:09;23.80;94.70
41310;DHT22;27057;51.438;-0.010;2022-07-21T16:32:38;23.70;94.70
41310;DHT22;27057;51.438;-0.010;2022-07-21T16:35:06;23.70;94.50
41310;DHT22;27057;51.438;-0.010;2022-07-21T16:37:34;23.70;94.60
41310;DHT22;27057;51.438;-0.010;2022-07-21T16:40:03;23.70;94.50
41310;DHT22;27057;51.438;-0.010;2022-07-21T16:42:31;23.60;94.80
41310;DHT22;27057;51.438;-0.010;2022-07-21T16:44:58;23.60;94.70
41310;DHT22;27057;51.438;-0.010;2022-07-21T16:49:53;23.60;94.30
41310;DHT22;27057;51.438;-0.010;2022-07-21T16:52:22;23.60;94.70
41310;DHT22;27057;51.438;-0.010;2022-07-21T16:54:49;24.00;99.90
41310;DHT22;27057;51.438;-0.010;2022-07-21T16:57:17;23.50;94.80
41310;DHT22;27057;51.438;-0.010;2022-07-21T16:59:44;23.50;95.10
41310;DHT22;27057;51.438;-0.010;2022-07-21T17:02:11;23.60;95.10
41310;DHT22;27057;51.438;-0.010;2022-07-21T17:04:39;23.60;95.20